Dallas, TX (75205)

8:01 AM CST on February 09, 2016 (GMT -0600)
AstroGlow | | Change Station
CLOSE
Current Station
Personal Weather Station
Location: Dallas, TX
Elevation: 554 ft
Nearby Weather Stations

Elev 554 ft 32.84 °N, 96.79 °W | Updated 13 seconds ago

Clear
Clear
38.2 °F
Feels Like 38 °F
N
2.0
Wind Variable Wind from WNW
Gusts 5.0 mph

Today
High -- | Low -- °F
--% Chance of Precip.
Yesterday
High -- | Low -- °F
Precip. -- in
Pressure 30.30 in
Visibility 10.0 miles
Clouds Few 30000 ft
Windchill 38 °F
Dew Point 16 °F
Humidity 40%
Rainfall 0.00 in
Snow Depth Not available.
7:16 AM 6:06 PM
New Moon, 1% visible
METAR KDAL 091353Z 00000KT 10SM FEW300 03/M11 A3030 RMK AO2 SLP259 T00331106
Pressure 30.30 in
Visibility 10.0 miles
Clouds Few 30000 ft
Windchill 38 °F
Dew Point 16 °F
Humidity 40%
Rainfall 0.00 in
Snow Depth Not available.
7:16 AM 6:06 PM
New Moon, 1% visible
METAR KDAL 091353Z 00000KT 10SM FEW300 03/M11 A3030 RMK AO2 SLP259 T00331106

10-Day Weather Forecast

Almanac

Astronomy

Feb. 09, 2016 Rise Set
Actual Time
Civil Twilight
Nautical Twilight
Astronomical Twilight
Moon
Length of Visible Light
Length of Day
Tomorrow will be .
, % of the Moon is Illuminated

Today's Extremes

State Highs State Lows

Community

WunderPhotos

Upload Photos

1,891,597 photos uploaded!

WunderBlog® & News

Nearby

Air Quality

  Air Quality AQ Index Pollutant
Not available.

Snow Depth

Station Depth Elevation

Earthquake Activity

City Distance Mag. Time & Date
Minimum magnitude displayed is 2.5.

Coastal Water Temperatures

Place Temperature

Stations

Nearby Weather Stations

Station Location Temp. Windchill Dew Point Humidity Wind Precip. Elev Updated Type
                   

Watches & Warnings

There are currently no watches in effect.